Terminal Aerodrome Forecast
Issued by NWS

Home | Current Version | Previous Version | Graphics & Text | Print | Product List | Glossary On
Versions: 1 2 3 4 5 6 7 8 9 10 11 12 13 14 15 16 17 18 19 20 21 22 23 24 25 26 27 28 29 30 31
000
FTUS43 KPAH 292241 AAB
TAFOWB
TAF AMD
KOWB 292241Z 2923/3018 32013G23KT 3SM -TSRA BR BKN008 BKN040CB
     FM292330 36010KT P6SM SCT025
     FM300300 35004KT P6SM SCT100=

USA.gov is the U.S. government's official web portal to all federal, state and local government web resources and services.